Oxdrift, Canada
Current Conditions -  °F | °C
As of 2:28 PM on Monday 26 Jan 2015 (Local Time) from CYHD Reporting Station
Overcast Overcast  
Wind Chill: 19°   Ceiling: 1100
Heat Index: 25°   Visibility: 9mi
Dew Point: 21°   Wind: 5mph
Humidity: 86%   Direction: 360°N
Pressure: 29.75"   Gusts: NA
Location:  49.82°N, 92.98°W
Report Text: CYHD 262028Z AUTO 36004KT 330V030 9SM OVC011 M04/M06 A2975 RMK SLP102
Loading
Personal Weather Stations






























Interactive Weather Map New forecast layout! Learn more

10-Day Weather Forecast

Advertisements
Track Severe Weather on mobile